Time;durP1;ratioP1;P1;durP2;ratioP2;P2;SDS_P1;SDS_P2;PMS_P1;PMS_P2;Temp;Humidity;BMP_temperature;BMP_pressure;BME280_temperature;BME280_humidity;BME280_pressure;Samples;Min_cycle;Max_cycle;Signal;HPM_P1;HPM_P2
2023/03/12 00:01:23;;;;;;;8.80;5.40;;;;;;;7.89;70.26;97995.94;105720;1251;62657;-54
2023/03/12 00:03:52;;;;;;;7.40;4.60;;;;;;;7.79;70.46;98009.52;105828;1250;65059;-54
2023/03/12 00:06:21;;;;;;;8.70;5.20;;;;;;;7.62;70.80;98005.13;106027;1256;59628;-53
2023/03/12 00:08:53;;;;;;;7.90;5.00;;;;;;;7.68;70.69;97995.70;105686;1250;59807;-53
2023/03/12 00:11:24;;;;;;;9.10;5.80;;;;;;;7.69;70.56;98000.19;105748;1251;65139;-52
2023/03/12 00:13:53;;;;;;;8.00;5.30;;;;;;;7.75;69.84;98001.13;105712;1253;62890;-54
2023/03/12 00:16:22;;;;;;;10.10;5.60;;;;;;;7.70;69.93;98006.02;105627;1252;65064;-54
2023/03/12 00:18:51;;;;;;;8.10;5.70;;;;;;;7.64;70.03;98008.39;105536;1256;59622;-54
2023/03/12 00:21:20;;;;;;;8.90;5.00;;;;;;;7.59;69.93;98018.81;105461;1256;59740;-54
2023/03/12 00:23:53;;;;;;;7.10;4.50;;;;;;;7.57;69.48;98027.43;105573;1256;65397;-53
2023/03/12 00:26:21;;;;;;;7.10;4.90;;;;;;;7.56;69.25;98018.30;105502;1251;62199;-54
2023/03/12 00:28:51;;;;;;;8.20;5.10;;;;;;;7.52;69.20;98020.05;105576;1251;64130;-53
2023/03/12 00:31:26;;;;;;;5.20;1.90;;;;;;;7.44;69.13;98029.79;105671;1250;60028;-54
2023/03/12 00:33:59;;;;;;;7.10;4.70;;;;;;;7.27;69.13;98036.23;105587;1250;59765;-55
2023/03/12 00:36:29;;;;;;;7.30;4.40;;;;;;;7.22;69.30;98034.88;105710;1256;65462;-52
2023/03/12 00:39:01;;;;;;;6.90;4.50;;;;;;;7.03;69.80;98033.54;105584;1251;62742;-53
2023/03/12 00:41:31;;;;;;;6.30;3.90;;;;;;;7.05;70.03;98026.54;105593;1251;65045;-53
2023/03/12 00:43:59;;;;;;;7.00;3.90;;;;;;;7.02;69.80;98036.23;105810;1253;59513;-56
2023/03/12 00:46:28;;;;;;;5.70;3.30;;;;;;;6.99;69.35;98030.58;105467;1250;59657;-53
2023/03/12 00:48:56;;;;;;;3.60;1.10;;;;;;;6.91;69.20;98020.64;105654;1255;65396;-53
2023/03/12 00:51:24;;;;;;;7.20;3.20;;;;;;;6.82;69.12;98039.11;105765;1251;70992;-54
2023/03/12 00:53:54;;;;;;;6.60;3.30;;;;;;;6.63;69.50;98016.33;105644;1257;64684;-52
2023/03/12 00:56:24;;;;;;;6.50;3.50;;;;;;;6.56;69.73;98017.38;106086;1251;59675;-54
2023/03/12 00:58:52;;;;;;;6.60;3.00;;;;;;;6.51;69.93;98026.23;105786;1250;59680;-53
2023/03/12 01:01:20;;;;;;;6.10;3.10;;;;;;;6.43;70.26;98017.60;105850;1253;65588;-52
2023/03/12 01:03:53;;;;;;;5.00;1.10;;;;;;;6.35;70.50;98015.27;105746;1251;62652;-54
2023/03/12 01:06:23;;;;;;;5.60;2.80;;;;;;;6.37;70.54;98013.00;105863;1254;64698;-54
2023/03/12 01:08:51;;;;;;;5.40;2.50;;;;;;;6.42;70.42;98011.67;105817;1253;60407;-53
2023/03/12 01:11:20;;;;;;;5.90;2.40;;;;;;;6.36;70.44;98020.42;105951;1250;59760;-53
2023/03/12 01:13:48;;;;;;;3.80;1.30;;;;;;;6.25;70.69;98014.25;105745;1256;65365;-54
2023/03/12 01:16:17;;;;;;;5.90;2.90;;;;;;;6.18;70.96;98016.63;106014;1252;62735;-54
2023/03/12 01:18:45;;;;;;;5.30;2.20;;;;;;;6.18;70.77;98022.77;105659;1254;64722;-54
2023/03/12 01:21:13;;;;;;;2.30;0.60;;;;;;;6.22;70.36;98032.13;105830;1250;59755;-53
2023/03/12 01:23:41;;;;;;;4.70;1.80;;;;;;;6.24;69.91;98038.70;105774;1250;59734;-53
2023/03/12 01:26:09;;;;;;;5.40;1.80;;;;;;;6.22;69.86;98042.15;105908;1250;68090;-51
2023/03/12 01:28:38;;;;;;;3.80;1.30;;;;;;;6.16;69.74;98047.00;105603;1253;62585;-53
2023/03/12 01:31:08;;;;;;;2.60;0.60;;;;;;;6.08;69.40;98060.27;105868;1256;65049;-53
2023/03/12 01:33:36;;;;;;;4.80;1.60;;;;;;;6.00;69.41;98061.23;105771;1250;59858;-54
2023/03/12 01:36:11;;;;;;;1.20;0.50;;;;;;;5.98;69.42;98065.05;105619;1250;59743;-53
2023/03/12 01:38:40;;;;;;;0.90;0.30;;;;;;;5.96;69.10;98072.71;105741;1254;65034;-53
2023/03/12 01:41:08;;;;;;;3.10;1.00;;;;;;;5.93;69.47;98075.31;105775;1251;62660;-54
2023/03/12 01:43:37;;;;;;;2.40;0.50;;;;;;;5.86;69.76;98069.41;105608;1257;65052;-53
2023/03/12 01:46:25;;;;;;;2.10;0.70;;;;;;;5.78;70.30;98070.78;105595;1250;60013;-52
2023/03/12 01:49:07;;;;;;;0.60;0.20;;;;;;;5.69;70.59;98083.17;105648;1250;60339;-52
2023/03/12 01:51:57;;;;;;;1.40;0.50;;;;;;;5.63;70.17;98091.70;105877;1250;65124;-54
2023/03/12 01:54:31;;;;;;;0.70;0.10;;;;;;;5.60;69.78;98095.86;105777;1253;62333;-53
2023/03/12 01:57:01;;;;;;;1.70;0.50;;;;;;;5.56;69.50;98094.86;105688;1250;65353;-53
2023/03/12 01:59:38;;;;;;;1.40;0.50;;;;;;;5.51;69.04;98104.71;107774;1257;60468;-52
2023/03/12 02:02:06;;;;;;;1.30;0.20;;;;;;;5.45;68.52;98114.75;105653;1250;59683;-54
2023/03/12 02:04:35;;;;;;;2.00;0.20;;;;;;;5.36;68.39;98124.06;105814;1251;65957;-52
2023/03/12 02:07:08;;;;;;;1.70;0.60;;;;;;;5.35;68.43;98126.89;105722;1251;62599;-52
2023/03/12 02:09:45;;;;;;;0.80;0.10;;;;;;;5.33;68.79;98141.67;105850;1250;64964;-55
2023/03/12 02:12:15;;;;;;;2.50;0.60;;;;;;;5.31;68.78;98146.05;105615;1257;59641;-54
2023/03/12 02:14:43;;;;;;;1.40;0.20;;;;;;;5.25;68.54;98154.15;106053;1253;59517;-53
2023/03/12 02:17:11;;;;;;;1.50;0.40;;;;;;;5.19;68.93;98154.67;105480;1250;65437;-53
2023/03/12 02:20:07;;;;;;;0.60;0.30;;;;;;;5.12;69.06;98164.73;105634;1253;62389;-53
2023/03/12 02:22:36;;;;;;;1.10;0.20;;;;;;;4.90;68.69;98166.35;105722;1255;65492;-53
2023/03/12 02:25:39;;;;;;;1.10;0.40;;;;;;;4.74;68.14;98174.81;105438;1257;60562;-53
2023/03/12 02:28:11;;;;;;;0.40;0.10;;;;;;;4.51;68.36;98175.83;105573;1255;60649;-52
2023/03/12 02:30:41;;;;;;;0.30;0.00;;;;;;;4.40;68.54;98185.98;105425;1256;66202;-53
2023/03/12 02:33:22;;;;;;;0.80;0.20;;;;;;;4.26;69.07;98200.81;105480;1253;62777;-52
2023/03/12 02:35:50;;;;;;;0.50;0.10;;;;;;;4.07;68.65;98188.52;105551;1251;64907;-53
2023/03/12 02:38:28;;;;;;;1.10;0.10;;;;;;;3.91;69.12;98195.13;105543;1255;60548;-54
2023/03/12 02:40:58;;;;;;;0.40;0.00;;;;;;;3.78;69.93;98201.02;105690;1253;60559;-54
2023/03/12 02:43:27;;;;;;;0.90;0.10;;;;;;;3.70;70.04;98207.19;105773;1253;65250;-54
2023/03/12 02:45:55;;;;;;;1.50;0.20;;;;;;;3.70;69.89;98214.88;105664;1253;62630;-54
2023/03/12 02:48:24;;;;;;;1.30;0.40;;;;;;;3.70;69.55;98215.92;105753;1250;64956;-54
2023/03/12 02:50:53;;;;;;;0.80;0.10;;;;;;;3.67;69.86;98223.05;105515;1251;60368;-54
2023/03/12 02:53:22;;;;;;;1.40;0.30;;;;;;;3.64;70.03;98219.32;105803;1250;60496;-55
2023/03/12 02:55:50;;;;;;;1.10;0.60;;;;;;;3.60;70.16;98224.03;105660;1259;66171;-54
2023/03/12 02:58:19;;;;;;;1.50;0.60;;;;;;;3.57;70.34;98227.06;105684;1250;62332;-54
2023/03/12 03:00:48;;;;;;;0.40;0.20;;;;;;;3.51;70.28;98235.05;105739;1250;65203;-54
2023/03/12 03:03:16;;;;;;;1.20;0.20;;;;;;;3.45;70.46;98229.95;105661;1250;60516;-54
2023/03/12 03:05:45;;;;;;;0.80;0.20;;;;;;;3.43;70.55;98225.30;105512;1251;60603;-54
2023/03/12 03:08:16;;;;;;;1.80;0.50;;;;;;;3.41;70.80;98225.85;105596;1256;66255;-54
2023/03/12 03:10:50;;;;;;;1.30;0.30;;;;;;;3.39;71.10;98228.45;105576;1250;62726;-54
2023/03/12 03:13:19;;;;;;;1.20;0.40;;;;;;;3.38;70.98;98235.45;105724;1256;65107;-55
2023/03/12 03:15:49;;;;;;;1.70;0.50;;;;;;;3.37;71.29;98249.03;105765;1254;60622;-55
2023/03/12 03:18:20;;;;;;;1.20;0.30;;;;;;;3.40;71.29;98251.36;105668;1250;60485;-55
2023/03/12 03:21:05;;;;;;;1.90;0.70;;;;;;;3.43;71.18;98259.05;105510;1250;66169;-53
2023/03/12 03:23:36;;;;;;;1.00;0.20;;;;;;;3.45;70.96;98268.65;105796;1256;61639;-54
2023/03/12 03:26:05;;;;;;;1.20;0.40;;;;;;;3.44;70.86;98281.02;105533;1253;65062;-55
2023/03/12 03:28:33;;;;;;;1.70;0.60;;;;;;;3.40;70.91;98282.27;105569;1250;61067;-54
2023/03/12 03:31:02;;;;;;;1.60;0.30;;;;;;;3.43;70.84;98278.49;105598;1250;60563;-54
2023/03/12 03:33:37;;;;;;;2.20;0.40;;;;;;;3.49;70.47;98282.33;105673;1257;66372;-56
2023/03/12 03:36:06;;;;;;;0.70;0.20;;;;;;;3.51;70.13;98291.19;105981;1256;61674;-54
2023/03/12 03:38:37;;;;;;;1.80;0.40;;;;;;;3.47;69.87;98298.28;105753;1258;65001;-54
2023/03/12 03:41:10;;;;;;;2.20;0.50;;;;;;;3.40;70.22;98303.71;105552;1251;60475;-54
2023/03/12 03:43:41;;;;;;;3.10;0.50;;;;;;;3.35;70.19;98304.33;105518;1252;60533;-54
2023/03/12 03:46:10;;;;;;;0.90;0.30;;;;;;;3.32;70.01;98303.83;105579;1250;66117;-55
2023/03/12 03:48:42;;;;;;;2.20;0.50;;;;;;;3.27;69.98;98302.54;105666;1251;62630;-54
2023/03/12 03:51:10;;;;;;;1.50;0.60;;;;;;;3.21;70.31;98305.84;105535;1254;63743;-54
2023/03/12 03:53:42;;;;;;;1.60;0.40;;;;;;;3.11;70.60;98309.23;105701;1254;60473;-53
2023/03/12 03:56:13;;;;;;;1.10;0.40;;;;;;;3.02;70.92;98307.02;105666;1251;60473;-54
2023/03/12 03:58:50;;;;;;;1.70;0.30;;;;;;;3.00;71.13;98310.66;105614;1256;66354;-53
2023/03/12 04:38:58;;;;;;;2.50;0.70;;;;;;;2.41;72.14;98444.14;103753;1254;74552;-65
2023/03/12 04:41:35;;;;;;;3.80;0.90;;;;;;;2.45;72.18;98450.26;105217;1263;60536;-65
2023/03/12 04:44:11;;;;;;;4.90;1.50;;;;;;;2.38;72.13;98445.77;105227;1257;60486;-66
2023/03/12 04:46:41;;;;;;;5.30;1.30;;;;;;;2.28;71.76;98461.05;105432;1260;65971;-66
2023/03/12 04:49:11;;;;;;;2.00;0.70;;;;;;;2.28;71.54;98461.56;105039;1261;71657;-66
2023/03/12 04:51:40;;;;;;;2.30;0.50;;;;;;;2.26;70.64;98459.70;105396;1258;73660;-66
2023/03/12 04:54:08;;;;;;;2.90;1.00;;;;;;;2.22;69.72;98467.73;105486;1255;60585;-66
2023/03/12 04:56:37;;;;;;;1.40;0.70;;;;;;;2.20;71.19;98475.80;105210;1258;61037;-65
2023/03/12 04:59:09;;;;;;;2.50;0.50;;;;;;;2.08;72.90;98482.98;105550;1254;74857;-65
2023/03/12 05:01:38;;;;;;;2.30;0.90;;;;;;;1.91;78.43;98490.83;105665;1258;71079;-66
2023/03/12 05:04:11;;;;;;;2.80;0.50;;;;;;;1.95;78.37;98500.92;106058;1257;64598;-67
2023/03/12 05:06:40;;;;;;;2.50;0.80;;;;;;;2.02;77.95;98510.42;105884;1256;60468;-66
2023/03/12 05:09:09;;;;;;;2.80;1.30;;;;;;;2.04;77.98;98516.85;105668;1255;61333;-64
2023/03/12 05:11:39;;;;;;;4.50;0.90;;;;;;;1.99;76.79;98519.81;105457;1258;74655;-66
2023/03/12 05:14:10;;;;;;;1.90;0.60;;;;;;;2.05;77.96;98528.55;105217;1258;71254;-65
2023/03/12 05:16:39;;;;;;;3.60;0.90;;;;;;;2.09;77.79;98528.21;105306;1258;72484;-67
2023/03/12 05:19:10;;;;;;;2.90;0.80;;;;;;;2.13;78.51;98534.69;105467;1258;60578;-66
2023/03/12 05:21:41;;;;;;;4.60;1.10;;;;;;;2.12;78.41;98536.65;105632;1256;60438;-67
2023/03/12 05:24:09;;;;;;;1.30;0.40;;;;;;;2.11;78.64;98539.80;105733;1259;74852;-63
2023/03/12 05:26:40;;;;;;;3.90;0.90;;;;;;;2.05;77.90;98546.86;105527;1259;70279;-63
2023/03/12 05:29:11;;;;;;;3.00;1.00;;;;;;;2.09;77.51;98550.70;105379;1257;73561;-64
2023/03/12 05:31:45;;;;;;;2.70;0.90;;;;;;;2.05;77.82;98557.76;105069;1262;60540;-64
2023/03/12 05:34:14;;;;;;;2.90;0.80;;;;;;;1.96;76.90;98561.89;105196;1257;60473;-65
2023/03/12 05:36:44;;;;;;;4.30;1.60;;;;;;;1.87;76.35;98567.52;106608;1254;75553;-65
2023/03/12 05:39:14;;;;;;;3.20;1.20;;;;;;;1.89;76.54;98580.00;105713;1257;70277;-66
2023/03/12 05:41:43;;;;;;;3.50;1.30;;;;;;;1.91;76.68;98590.62;105411;1257;72639;-63
2023/03/12 05:44:16;;;;;;;4.10;1.90;;;;;;;1.83;74.60;98598.27;105267;1259;60778;-64
2023/03/12 05:46:48;;;;;;;3.70;1.50;;;;;;;1.79;74.59;98599.79;105338;1257;60469;-65
2023/03/12 05:49:17;;;;;;;2.60;0.70;;;;;;;1.78;75.25;98610.90;105448;1256;75053;-65
2023/03/12 05:51:47;;;;;;;4.00;0.90;;;;;;;1.79;75.74;98620.46;105323;1257;70932;-65
2023/03/12 05:54:16;;;;;;;2.90;0.90;;;;;;;1.82;77.02;98625.63;105358;1259;73729;-64
2023/03/12 05:56:44;;;;;;;5.80;2.30;;;;;;;1.82;76.88;98640.16;105735;1257;60430;-64
2023/03/12 05:59:13;;;;;;;3.00;0.70;;;;;;;1.79;76.24;98641.95;105196;1257;62144;-64
2023/03/12 06:01:41;;;;;;;3.10;0.80;;;;;;;1.77;77.24;98658.38;105207;1257;74667;-64
2023/03/12 06:04:10;;;;;;;4.40;1.20;;;;;;;1.78;77.25;98661.59;105534;1258;69692;-66
2023/03/12 06:06:39;;;;;;;4.60;1.00;;;;;;;1.79;77.39;98666.62;105351;1257;73555;-66
2023/03/12 06:09:08;;;;;;;2.90;0.90;;;;;;;1.78;77.74;98672.06;105724;1257;60458;-65
2023/03/12 06:11:38;;;;;;;4.00;1.10;;;;;;;1.78;76.49;98680.20;105205;1257;60492;-64
2023/03/12 06:14:06;;;;;;;2.00;0.60;;;;;;;1.82;76.63;98693.98;105263;1261;73841;-65
2023/03/12 06:16:36;;;;;;;2.10;0.50;;;;;;;1.85;75.70;98701.17;105578;1256;71064;-65
2023/03/12 06:19:05;;;;;;;2.80;0.90;;;;;;;1.90;75.11;98711.55;105379;1260;72332;-64
2023/03/12 06:21:41;;;;;;;3.40;0.90;;;;;;;1.85;75.66;98719.50;105515;1260;60463;-64
2023/03/12 06:24:10;;;;;;;2.80;0.90;;;;;;;1.82;76.20;98724.88;105147;1256;60784;-64
2023/03/12 06:26:48;;;;;;;2.90;0.80;;;;;;;1.81;76.34;98736.88;105198;1260;75112;-64
2023/03/12 06:29:17;;;;;;;4.00;1.50;;;;;;;1.74;78.69;98740.17;106016;1258;71092;-65
2023/03/12 06:31:47;;;;;;;5.00;1.30;;;;;;;1.72;80.40;98746.52;105295;1257;72348;-64
2023/03/12 06:34:21;;;;;;;3.70;1.30;;;;;;;1.61;80.40;98759.20;105990;1254;60706;-65
2023/03/12 15:18:37;;;;;;;8.30;4.10;;;;;;;4.49;70.40;99666.30;107041;1265;72402;-65
2023/03/12 15:21:06;;;;;;;5.70;1.70;;;;;;;4.52;67.70;99666.95;106998;1246;60417;-64
2023/03/12 15:23:43;;;;;;;7.90;4.50;;;;;;;4.61;66.97;99670.33;107557;1250;60275;-64
2023/03/12 15:26:23;;;;;;;5.50;2.00;;;;;;;4.77;63.10;99671.04;107637;1250;74597;-64
2023/03/12 15:29:25;;;;;;;5.00;2.00;;;;;;;4.59;61.61;99669.06;107331;1247;60556;-64
2023/03/12 15:31:54;;;;;;;5.50;2.10;;;;;;;4.27;60.20;99670.63;107780;1250;65189;-65
2023/03/12 15:34:30;;;;;;;5.90;1.80;;;;;;;4.00;59.41;99675.34;107358;1246;60547;-65
2023/03/12 15:36:59;;;;;;;8.90;4.90;;;;;;;3.83;59.36;99681.46;107326;1248;60459;-65
2023/03/12 15:39:32;;;;;;;7.50;2.40;;;;;;;3.69;59.36;99683.36;107304;1250;66175;-65
2023/03/12 15:42:09;;;;;;;6.60;2.30;;;;;;;3.60;59.18;99684.83;107599;1244;62681;-64
2023/03/12 15:44:47;;;;;;;7.80;2.00;;;;;;;3.51;59.26;99683.30;108090;1247;65067;-64
2023/03/12 15:47:19;;;;;;;5.90;2.00;;;;;;;3.41;59.40;99685.42;107487;1245;60757;-64
2023/03/12 15:49:55;;;;;;;6.60;2.10;;;;;;;3.35;59.44;99691.36;107337;1244;60447;-65
2023/03/12 15:52:30;;;;;;;6.80;2.20;;;;;;;3.30;59.64;99695.34;107578;1244;65083;-64
2023/03/12 15:55:13;;;;;;;6.80;2.00;;;;;;;3.24;59.47;99705.54;107567;1246;62573;-65
2023/03/12 15:57:50;;;;;;;6.70;1.90;;;;;;;3.20;59.41;99710.30;107716;1247;64651;-65
2023/03/12 16:00:20;;;;;;;5.60;2.40;;;;;;;3.15;58.46;99713.52;107507;1245;60511;-65
2023/03/12 16:02:50;;;;;;;5.20;1.70;;;;;;;3.11;57.27;99726.40;107831;1245;60442;-64
2023/03/12 16:05:41;;;;;;;4.50;1.90;;;;;;;3.09;56.27;99722.40;107845;1244;65137;-65
2023/03/12 16:08:15;;;;;;;5.70;1.80;;;;;;;3.08;55.74;99728.84;107539;1244;62276;-64
2023/03/12 16:10:43;;;;;;;4.60;1.70;;;;;;;3.07;55.35;99731.52;107542;1246;64887;-64
2023/03/12 16:13:13;;;;;;;4.80;1.50;;;;;;;3.06;54.77;99737.67;107654;1247;60520;-66
2023/03/12 16:15:42;;;;;;;3.80;1.60;;;;;;;3.05;54.38;99741.70;107641;1244;60542;-65
2023/03/12 16:18:17;;;;;;;5.70;2.00;;;;;;;3.03;53.97;99753.41;107495;1247;66175;-65
2023/03/12 16:20:44;;;;;;;7.40;2.00;;;;;;;3.03;53.86;99752.39;107457;1246;62566;-64
2023/03/12 16:23:16;;;;;;;7.30;2.40;;;;;;;3.02;53.60;99765.59;107754;1247;64929;-64
2023/03/12 16:25:45;;;;;;;11.60;3.60;;;;;;;3.01;53.26;99761.50;107536;1244;60389;-65
2023/03/12 16:28:13;;;;;;;10.30;3.70;;;;;;;3.00;53.12;99767.79;107453;1246;60542;-65
2023/03/12 16:30:40;;;;;;;10.50;3.60;;;;;;;2.98;53.10;99772.23;107565;1246;65899;-64
2023/03/12 16:33:07;;;;;;;10.70;5.00;;;;;;;2.95;53.12;99770.85;107979;1241;62586;-64
2023/03/12 16:35:37;;;;;;;20.50;6.50;;;;;;;2.93;53.42;99770.29;107772;1242;63932;-64
2023/03/12 16:38:06;;;;;;;17.70;5.60;;;;;;;2.90;53.67;99774.95;108108;1238;60475;-63
2023/03/12 16:40:37;;;;;;;10.90;4.30;;;;;;;2.88;53.98;99779.73;107620;1242;60549;-65
2023/03/12 16:43:06;;;;;;;16.00;4.10;;;;;;;2.87;54.06;99786.23;107656;1242;65184;-67
2023/03/12 16:45:34;;;;;;;11.30;4.20;;;;;;;2.85;54.38;99798.80;107871;1242;70078;-65
2023/03/12 16:48:04;;;;;;;7.00;2.00;;;;;;;2.85;54.59;99806.47;107755;1243;64032;-65
2023/03/12 16:50:32;;;;;;;9.00;2.80;;;;;;;2.84;54.94;99814.65;107710;1241;60469;-65
2023/03/12 16:52:59;;;;;;;7.30;2.90;;;;;;;2.85;55.16;99835.56;107801;1242;61063;-65
2023/03/12 16:55:27;;;;;;;6.20;1.90;;;;;;;2.86;55.66;99857.33;107935;1241;65942;-65
2023/03/12 16:57:59;;;;;;;8.90;2.70;;;;;;;2.83;59.70;99888.48;107675;1249;71470;-64
2023/03/12 17:00:29;;;;;;;8.90;2.40;;;;;;;2.79;62.43;99877.44;108011;1242;63840;-65
2023/03/12 17:02:59;;;;;;;3.60;1.00;;;;;;;2.72;59.36;99880.92;107808;1241;60516;-66
2023/03/12 17:05:27;;;;;;;5.20;1.50;;;;;;;2.74;57.68;99881.19;107775;1244;60421;-64
2023/03/12 17:07:54;;;;;;;4.80;1.00;;;;;;;2.73;56.47;99881.95;107934;1238;74859;-65
2023/03/12 17:10:25;;;;;;;4.60;1.40;;;;;;;2.64;56.13;99888.86;107606;1241;62701;-65
2023/03/12 17:12:51;;;;;;;3.30;1.50;;;;;;;2.53;56.02;99888.21;107832;1241;73653;-64
2023/03/12 17:15:20;;;;;;;4.80;1.90;;;;;;;2.46;56.19;99897.45;107818;1244;60344;-67
2023/03/12 22:57:40;;;;;;;4.20;0.90;;;;;;;0.98;54.63;100476.67;103143;1282;604541;-56
2023/03/12 23:00:11;;;;;;;4.70;0.70;;;;;;;1.25;54.19;100485.48;104633;1271;112509;-56
2023/03/12 23:02:39;;;;;;;3.30;1.20;;;;;;;1.16;54.38;100496.20;104872;1266;60292;-55
2023/03/12 23:05:08;;;;;;;1.50;0.20;;;;;;;1.10;54.64;100494.87;104678;1265;73412;-55
2023/03/12 23:07:36;;;;;;;4.00;1.10;;;;;;;1.08;54.72;100504.80;105569;1268;71204;-55
2023/03/12 23:10:07;;;;;;;1.60;0.50;;;;;;;1.04;54.83;100504.09;104728;1266;73716;-55
2023/03/12 23:12:35;;;;;;;2.10;0.70;;;;;;;0.99;55.01;100509.83;105289;1266;59253;-55
2023/03/12 23:15:05;;;;;;;3.80;0.80;;;;;;;0.93;55.30;100507.98;104675;1266;61308;-55
2023/03/12 23:17:35;;;;;;;1.60;0.30;;;;;;;0.88;55.58;100514.20;104969;1265;73459;-56
2023/03/12 23:20:04;;;;;;;2.40;0.40;;;;;;;0.84;55.58;100520.91;105057;1262;71700;-56
2023/03/12 23:22:33;;;;;;;4.00;0.70;;;;;;;0.82;55.90;100522.20;104931;1263;73496;-56
2023/03/12 23:25:04;;;;;;;1.10;0.30;;;;;;;0.77;56.05;100525.65;105024;1262;60335;-56
2023/03/12 23:27:32;;;;;;;1.90;0.40;;;;;;;0.72;56.18;100526.02;104998;1263;61015;-55
2023/03/12 23:30:01;;;;;;;2.80;0.70;;;;;;;0.68;56.28;100528.75;104931;1263;74014;-56
2023/03/12 23:32:30;;;;;;;1.50;0.40;;;;;;;0.65;56.39;100535.95;105128;1262;71148;-55
2023/03/12 23:34:59;;;;;;;0.70;0.20;;;;;;;0.61;56.60;100536.09;105382;1265;73968;-56
2023/03/12 23:37:30;;;;;;;1.30;0.30;;;;;;;0.57;56.70;100543.67;105051;1263;59688;-55
2023/03/12 23:39:58;;;;;;;1.30;0.30;;;;;;;0.54;56.82;100545.48;105167;1262;61069;-55
2023/03/12 23:42:27;;;;;;;2.80;0.60;;;;;;;0.51;56.88;100543.35;105094;1265;74019;-55
2023/03/12 23:44:56;;;;;;;1.50;0.40;;;;;;;0.49;56.93;100549.80;105117;1264;71228;-56
2023/03/12 23:47:25;;;;;;;2.30;0.30;;;;;;;0.53;57.01;100549.48;105075;1264;72699;-56
2023/03/12 23:49:53;;;;;;;2.10;0.40;;;;;;;0.62;56.77;100557.64;105022;1263;62554;-56
2023/03/12 23:52:25;;;;;;;3.30;0.60;;;;;;;0.69;56.76;100558.42;105096;1262;61060;-55
2023/03/12 23:54:54;;;;;;;0.60;0.10;;;;;;;0.74;56.64;100559.30;105090;1265;73728;-55
2023/03/12 23:57:22;;;;;;;2.10;0.50;;;;;;;0.73;56.72;100566.39;104913;1263;71597;-55
2023/03/12 23:59:53;;;;;;;3.90;0.60;;;;;;;0.70;56.78;100563.70;104878;1263;73495;-57
